This is the latest recevied weather packets stored in our database for station/object KA0WKG. If no packets are shown the sender has not sent any weather packets the latest 10 day(s).
| Time | Temp. | Humidity | Pressure | Rain* | Wind** | Luminosity | Snow |
|---|---|---|---|---|---|---|---|
| 1777913106 | 22.78° C | 27% | 1005.9 hPa | 0 mm | - | - | - |
| 1777910706 | 21.11° C | 35% | 1006 hPa | 0 mm | - | - | - |
| 1777909205 | 19.44° C | 37% | 1006.1 hPa | 0 mm | - | - | - |
| 1777907706 | 17.78° C | 44% | 1006.4 hPa | 0 mm | - | - | - |
| 1777906805 | 16.67° C | 47% | 1006.6 hPa | 0 mm | - | - | - |
| 1777905306 | 15.56° C | 50% | 1006.7 hPa | 0 mm | - | - | - |
| 1777903806 | 14.44° C | 52% | 1006.7 hPa | 0 mm | - | - | - |
| 1777902605 | 12.78° C | 57% | 1006.7 hPa | 0 mm | - | - | - |
| 1777900506 | 9.44° C | 71% | 1006.8 hPa | 0 mm | - | - | - |
| 1777898105 | 4.44° C | 86% | 1006.6 hPa | 0 mm | - | - | - |
| 1777892404 | 3.33° C | 84% | 1006.1 hPa | 0 mm | - | - | - |
| 1777892104 | 3.33° C | 85% | 1006 hPa | 0 mm | - | - | - |
| 1777891804 | 3.89° C | 86% | 1006 hPa | 0 mm | - | - | - |
| 1777890005 | 3.89° C | 85% | 1006.3 hPa | 0 mm | - | - | - |
| 1777889404 | 3.89° C | 84% | 1006.2 hPa | 0 mm | - | - | - |
| 1777887905 | 3.89° C | 85% | 1006.3 hPa | 0 mm | - | - | - |
| 1777886705 | 3.89° C | 82% | 1006.5 hPa | 0 mm | - | - | - |
| 1777886404 | 4.44° C | 81% | 1006.5 hPa | 0 mm | - | - | - |
| 1777884604 | 4.44° C | 81% | 1006.7 hPa | 0 mm | - | - | - |
| 1777884004 | 5° C | 81% | 1006.8 hPa | 0 mm | - | - | - |
| 1777873209 | 9.44° C | 66% | 1007.9 hPa | 0 mm | - | - | - |
| 1777870208 | 10° C | 66% | 1008.6 hPa | 0 mm | - | - | - |
| 1777869609 | 11.11° C | 59% | 1008.4 hPa | 0 mm | - | - | - |
| 1777868109 | 11.67° C | 58% | 1008.8 hPa | 0 mm | - | - | - |
| 1777866909 | 11.11° C | 60% | 1008.6 hPa | 0 mm | - | - | - |
* Rain latest hour (hover to see other rain measurements)
** Current wind speed in m/s (hover to see current wind gust speed)